createdAt,value
2023-02-12T00:00:32.522Z,9.75
2023-02-12T00:03:02.340Z,9.73
2023-02-12T00:05:35.665Z,9.73
2023-02-12T00:08:05.453Z,9.73
2023-02-12T00:10:35.324Z,9.71
2023-02-12T00:13:05.090Z,9.71
2023-02-12T00:15:34.955Z,9.72
2023-02-12T00:18:04.784Z,9.73
2023-02-12T00:20:37.291Z,9.74
2023-02-12T00:23:07.796Z,9.73
2023-02-12T00:25:37.618Z,9.72
2023-02-12T00:28:07.475Z,9.70
2023-02-12T00:30:38.152Z,9.67
2023-02-12T00:33:07.924Z,9.66
2023-02-12T00:35:40.310Z,9.65
2023-02-12T00:38:10.339Z,9.65
2023-02-12T00:40:40.173Z,9.63
2023-02-12T00:43:09.918Z,9.61
2023-02-12T00:45:39.716Z,9.59
2023-02-12T00:48:09.745Z,9.58
2023-02-12T00:50:42.249Z,9.57
2023-02-12T00:53:12.122Z,9.57
2023-02-12T00:55:41.896Z,9.57
2023-02-12T00:58:12.712Z,9.56
2023-02-12T01:00:42.584Z,9.56
2023-02-12T01:03:12.362Z,9.55
2023-02-12T01:05:45.257Z,9.55
2023-02-12T01:08:15.933Z,9.54
2023-02-12T01:10:49.540Z,9.51
2023-02-12T01:13:19.534Z,9.50
2023-02-12T01:15:49.361Z,9.48
2023-02-12T01:18:19.286Z,9.48
2023-02-12T01:20:51.656Z,9.46
2023-02-12T01:23:21.483Z,9.48
2023-02-12T01:25:51.241Z,9.48
2023-02-12T01:28:21.281Z,9.49
2023-02-12T01:30:51.327Z,9.49
2023-02-12T01:33:21.239Z,9.50
2023-02-12T01:35:53.974Z,9.52
2023-02-12T01:38:23.899Z,9.50
2023-02-12T01:40:53.731Z,9.48
2023-02-12T01:43:23.516Z,9.47
2023-02-12T01:45:58.126Z,9.47
2023-02-12T01:48:31.158Z,9.44
2023-02-12T01:51:05.395Z,9.43
2023-02-12T01:53:39.591Z,9.41
2023-02-12T01:56:09.965Z,9.40
2023-02-12T01:58:43.319Z,9.39
2023-02-12T02:01:18.677Z,9.38
2023-02-12T02:03:51.076Z,9.37
2023-02-12T02:06:28.362Z,9.37
2023-02-12T02:08:59.754Z,9.37
2023-02-12T02:11:42.105Z,9.38
2023-02-12T02:14:24.277Z,9.37
2023-02-12T02:17:04.336Z,9.37
2023-02-12T02:19:48.730Z,9.37
2023-02-12T02:22:29.809Z,9.35
2023-02-12T02:25:29.520Z,9.33
2023-02-12T02:28:10.071Z,9.35
2023-02-12T02:30:51.412Z,9.34
2023-02-12T02:33:37.203Z,9.34
2023-02-12T02:36:20.326Z,9.34
2023-02-12T02:38:57.365Z,9.37
2023-02-12T02:41:34.401Z,9.39
2023-02-12T02:44:08.134Z,9.41
2023-02-12T02:46:45.040Z,9.40
2023-02-12T02:49:32.331Z,9.36
2023-02-12T02:52:06.804Z,9.38
2023-02-12T02:54:41.753Z,9.36
2023-02-12T02:57:16.606Z,9.33
2023-02-12T02:59:50.701Z,9.31
2023-02-12T03:02:28.056Z,9.27
2023-02-12T03:05:01.446Z,9.28
2023-02-12T03:07:34.666Z,9.26
2023-02-12T03:10:07.609Z,9.25
2023-02-12T03:12:42.239Z,9.21
2023-02-12T03:15:21.203Z,9.17
2023-02-12T03:17:54.138Z,9.17
2023-02-12T03:20:28.326Z,9.16
2023-02-12T03:23:03.789Z,9.14
2023-02-12T03:25:38.345Z,9.12
2023-02-12T03:28:12.893Z,9.13
2023-02-12T03:30:51.710Z,9.11
2023-02-12T03:33:33.052Z,9.07
2023-02-12T03:36:08.854Z,9.08
2023-02-12T03:38:43.928Z,9.07
2023-02-12T03:41:21.191Z,9.08
2023-02-12T03:43:56.031Z,9.08
2023-02-12T03:46:31.327Z,9.09
2023-02-12T03:49:10.145Z,9.09
2023-02-12T03:51:42.549Z,9.15
2023-02-12T03:54:16.220Z,9.16
2023-02-12T03:56:52.342Z,9.17
2023-02-12T03:59:22.661Z,9.17
2023-02-12T04:01:56.223Z,9.17
2023-02-12T04:04:30.210Z,9.17
2023-02-12T04:07:00.894Z,9.16
2023-02-12T04:09:31.986Z,9.16
2023-02-12T04:12:18.255Z,9.12
2023-02-12T04:14:55.832Z,9.12
2023-02-12T04:17:33.377Z,9.10
2023-02-12T04:20:14.088Z,9.08
2023-02-12T04:22:52.697Z,9.10
2023-02-12T04:25:37.061Z,9.07
2023-02-12T04:28:16.231Z,9.08
2023-02-12T04:30:50.690Z,9.09
2023-02-12T04:33:24.679Z,9.08
2023-02-12T04:36:03.633Z,9.08
2023-02-12T04:38:39.219Z,9.09
2023-02-12T04:41:12.573Z,9.07
2023-02-12T04:43:42.366Z,9.07
2023-02-12T04:46:12.470Z,9.06
2023-02-12T04:48:53.960Z,9.01
2023-02-12T04:51:26.628Z,9.00
2023-02-12T04:53:56.431Z,9.01
2023-02-12T04:56:26.475Z,9.01
2023-02-12T04:58:57.937Z,9.03
2023-02-12T05:01:30.961Z,9.05
2023-02-12T05:04:01.357Z,9.06
2023-02-12T05:06:34.402Z,9.07
2023-02-12T05:09:04.322Z,9.08
2023-02-12T05:11:34.548Z,9.08
2023-02-12T05:14:04.570Z,9.09
2023-02-12T05:16:35.384Z,9.09
2023-02-12T05:19:05.233Z,9.08
2023-02-12T05:21:37.612Z,9.06
2023-02-12T05:24:08.065Z,9.05
2023-02-12T05:26:38.492Z,9.05
2023-02-12T05:29:08.297Z,9.04
2023-02-12T05:31:38.558Z,9.02
2023-02-12T05:34:10.049Z,9.01
2023-02-12T05:36:43.189Z,8.99
2023-02-12T05:39:14.309Z,8.99
2023-02-12T05:41:44.245Z,8.99
2023-02-12T05:44:15.366Z,8.99
2023-02-12T05:46:45.702Z,8.98
2023-02-12T05:49:15.562Z,8.96
2023-02-12T05:51:48.054Z,8.93
2023-02-12T05:54:17.825Z,8.92
2023-02-12T05:56:49.853Z,8.91
2023-02-12T05:59:22.015Z,8.93
2023-02-12T06:01:53.510Z,8.92
2023-02-12T06:04:25.802Z,8.92
2023-02-12T06:06:59.883Z,8.92
2023-02-12T06:09:30.210Z,8.92
2023-02-12T06:11:59.978Z,8.93
2023-02-12T06:14:31.879Z,8.96
2023-02-12T06:17:02.280Z,8.98
2023-02-12T06:19:32.046Z,9.01
2023-02-12T06:22:04.414Z,9.02
2023-02-12T06:24:34.286Z,9.03
2023-02-12T06:27:04.062Z,9.01
2023-02-12T06:29:33.856Z,8.99
2023-02-12T06:32:03.890Z,8.99
2023-02-12T06:34:33.865Z,8.98
2023-02-12T06:37:06.251Z,9.01
2023-02-12T06:39:36.094Z,8.99
2023-02-12T06:42:06.007Z,8.98
2023-02-12T06:44:35.896Z,8.95
2023-02-12T06:47:05.661Z,8.93
2023-02-12T06:49:35.544Z,8.89
2023-02-12T06:52:08.021Z,8.88
2023-02-12T06:54:37.807Z,8.85
2023-02-12T06:57:07.593Z,8.82
2023-02-12T06:59:37.542Z,8.82
2023-02-12T07:02:07.327Z,8.82
2023-02-12T07:04:37.925Z,8.83
2023-02-12T07:07:10.704Z,8.84
2023-02-12T07:09:40.488Z,8.78
2023-02-12T07:12:10.899Z,8.74
2023-02-12T07:14:40.897Z,8.72
2023-02-12T07:17:10.711Z,8.73
2023-02-12T07:19:40.673Z,8.76
2023-02-12T07:22:12.996Z,8.79
2023-02-12T07:24:43.659Z,8.82
2023-02-12T07:27:13.453Z,8.86
2023-02-12T07:29:43.242Z,8.89
2023-02-12T07:32:13.242Z,8.91
2023-02-12T07:34:43.086Z,8.94
2023-02-12T07:37:15.662Z,8.96
2023-02-12T07:39:45.411Z,8.97
2023-02-12T07:42:15.280Z,8.99
2023-02-12T07:44:45.083Z,9.00
2023-02-12T07:47:15.883Z,9.02
2023-02-12T07:49:45.624Z,9.02
2023-02-12T07:52:18.341Z,9.03
2023-02-12T07:54:48.359Z,9.06
2023-02-12T07:57:18.387Z,9.03
2023-02-12T07:59:48.201Z,9.04
2023-02-12T08:02:18.101Z,9.05
2023-02-12T08:04:47.965Z,9.07
2023-02-12T08:07:20.465Z,9.07
2023-02-12T08:09:51.150Z,9.08
2023-02-12T08:12:21.762Z,9.10
2023-02-12T08:14:51.565Z,9.10
2023-02-12T08:17:21.318Z,9.10
2023-02-12T08:19:51.127Z,9.09
2023-02-12T08:22:23.580Z,9.10
2023-02-12T08:24:53.382Z,9.15
2023-02-12T08:27:23.193Z,9.20
2023-02-12T08:29:52.974Z,9.22
2023-02-12T08:32:22.766Z,9.25
2023-02-12T08:34:52.997Z,9.27
2023-02-12T08:37:25.392Z,9.30
2023-02-12T08:39:55.246Z,9.30
2023-02-12T08:42:25.833Z,9.31
2023-02-12T08:44:55.784Z,9.29
2023-02-12T08:47:26.311Z,9.31
2023-02-12T08:49:56.099Z,9.31
2023-02-12T08:52:28.889Z,9.31
2023-02-12T08:54:58.727Z,9.34
2023-02-12T08:57:28.893Z,9.35
2023-02-12T08:59:58.988Z,9.33
2023-02-12T09:02:29.009Z,9.35
2023-02-12T09:04:58.924Z,9.41
2023-02-12T09:07:31.398Z,9.51
2023-02-12T09:10:01.198Z,9.57
2023-02-12T09:12:31.009Z,9.64
2023-02-12T09:15:00.787Z,9.72
2023-02-12T09:17:30.774Z,9.77
2023-02-12T09:20:01.575Z,9.82
2023-02-12T09:22:34.207Z,9.86
2023-02-12T09:25:03.951Z,9.91
2023-02-12T09:27:33.799Z,9.96
2023-02-12T09:30:03.549Z,10.01
2023-02-12T09:32:33.527Z,10.06
2023-02-12T09:35:03.329Z,10.13
2023-02-12T09:37:35.771Z,10.20
2023-02-12T09:40:05.472Z,10.28
2023-02-12T09:42:57.982Z,10.28
2023-02-12T09:45:33.298Z,10.31
2023-02-12T09:48:14.768Z,10.34
2023-02-12T09:50:53.326Z,10.42
2023-02-12T09:53:30.767Z,10.50
2023-02-12T09:56:00.738Z,10.56
2023-02-12T09:58:36.754Z,10.59
2023-02-12T10:01:14.588Z,10.60
2023-02-12T10:03:45.242Z,10.67
2023-02-12T10:06:19.133Z,10.66
2023-02-12T10:09:02.514Z,10.67
2023-02-12T10:11:46.459Z,10.70
2023-02-12T10:14:30.643Z,10.73
2023-02-12T10:17:07.003Z,10.80
2023-02-12T10:20:01.202Z,10.80
2023-02-12T10:22:56.207Z,10.87
2023-02-12T10:25:34.524Z,10.96
2023-02-12T10:28:12.339Z,11.02
2023-02-12T10:30:47.131Z,11.11
2023-02-12T10:33:22.376Z,11.15
2023-02-12T10:35:56.657Z,11.19
2023-02-12T10:38:33.268Z,11.24
2023-02-12T10:41:05.711Z,11.33
2023-02-12T10:43:35.864Z,11.37
2023-02-12T10:46:06.268Z,11.37
2023-02-12T10:48:40.955Z,11.38
2023-02-12T10:51:28.409Z,11.32
2023-02-12T10:53:58.761Z,11.36
2023-02-12T10:56:31.306Z,11.39
2023-02-12T10:59:03.169Z,11.42
2023-02-12T11:01:34.594Z,11.50
2023-02-12T11:04:27.561Z,11.49
2023-02-12T11:07:03.740Z,11.61
2023-02-12T11:09:40.848Z,11.69
2023-02-12T11:12:22.892Z,11.75
2023-02-12T11:14:55.814Z,11.77
2023-02-12T11:17:29.935Z,11.75
2023-02-12T11:20:09.880Z,11.77
2023-02-12T11:22:40.082Z,11.88
2023-02-12T11:25:18.589Z,11.89
2023-02-12T11:28:03.133Z,11.89
2023-02-12T11:30:33.748Z,11.94
2023-02-12T11:33:19.706Z,11.86
2023-02-12T11:35:54.868Z,11.94
2023-02-12T11:38:31.297Z,11.96
2023-02-12T11:41:05.180Z,12.02
2023-02-12T11:43:40.237Z,12.07
2023-02-12T11:46:11.220Z,12.09
2023-02-12T11:48:44.408Z,12.11
2023-02-12T11:51:22.806Z,12.14
2023-02-12T11:53:55.246Z,12.19
2023-02-12T11:56:25.667Z,12.23
2023-02-12T11:59:15.988Z,12.22
2023-02-12T12:01:46.506Z,12.24
2023-02-12T12:04:20.626Z,12.23
2023-02-12T12:06:54.745Z,12.21
2023-02-12T12:09:29.683Z,12.13
2023-02-12T12:12:14.950Z,12.15
2023-02-12T12:15:04.237Z,12.18
2023-02-12T12:17:57.318Z,12.26
2023-02-12T12:20:31.230Z,12.32
2023-02-12T12:23:05.680Z,12.31
2023-02-12T12:25:43.460Z,12.29
2023-02-12T12:28:30.977Z,12.25
2023-02-12T12:31:09.857Z,12.26
2023-02-12T12:33:46.167Z,12.28
2023-02-12T12:36:55.157Z,12.26
2023-02-12T12:39:31.669Z,12.35
2023-02-12T12:42:28.255Z,12.39
2023-02-12T12:45:42.677Z,12.44
2023-02-12T12:48:26.153Z,12.49
2023-02-12T12:51:16.942Z,12.51
2023-02-12T12:53:58.037Z,12.58
2023-02-12T12:57:08.314Z,12.57
2023-02-12T13:00:01.659Z,12.51
2023-02-12T13:03:16.892Z,12.48
2023-02-12T13:06:19.923Z,12.43
2023-02-12T13:09:05.909Z,12.43
2023-02-12T13:11:45.525Z,12.47
2023-02-12T13:14:30.572Z,12.47
2023-02-12T13:17:09.271Z,12.49
2023-02-12T13:19:49.866Z,12.49
2023-02-12T13:22:26.905Z,12.56
2023-02-12T13:25:08.320Z,12.64
2023-02-12T13:27:40.900Z,12.68
2023-02-12T13:30:22.217Z,12.62
2023-02-12T13:33:01.964Z,12.60
2023-02-12T13:35:34.449Z,12.53
2023-02-12T13:38:06.501Z,12.50
2023-02-12T13:40:39.274Z,12.52
2023-02-12T13:43:23.160Z,12.60
2023-02-12T13:46:02.236Z,12.65
2023-02-12T13:48:44.249Z,12.66
2023-02-12T13:51:31.330Z,12.61
2023-02-12T13:54:15.810Z,12.60
2023-02-12T13:56:51.358Z,12.61
2023-02-12T13:59:44.612Z,12.54
2023-02-12T14:02:52.898Z,12.53
2023-02-12T14:05:26.718Z,12.61
2023-02-12T14:07:59.385Z,12.59
2023-02-12T14:10:33.625Z,12.55
2023-02-12T14:13:19.824Z,12.47
2023-02-12T14:15:53.317Z,12.51
2023-02-12T14:18:35.866Z,12.47
2023-02-12T14:21:45.345Z,12.44
2023-02-12T14:24:54.046Z,12.46
2023-02-12T14:27:32.029Z,12.54
2023-02-12T14:30:30.953Z,12.50
2023-02-12T14:33:11.884Z,12.57
2023-02-12T14:35:42.826Z,12.56
2023-02-12T14:38:47.526Z,12.50
2023-02-12T14:41:38.027Z,12.53
2023-02-12T14:44:41.743Z,12.40
2023-02-12T14:47:55.689Z,12.35
2023-02-12T14:50:34.452Z,12.40
2023-02-12T14:53:15.080Z,12.42
2023-02-12T14:55:49.777Z,12.38
2023-02-12T14:58:22.933Z,12.40
2023-02-12T15:00:56.711Z,12.43
2023-02-12T15:03:35.487Z,12.43
2023-02-12T15:06:12.733Z,12.43
2023-02-12T15:08:51.783Z,12.35
2023-02-12T15:11:32.769Z,12.32
2023-02-12T15:14:07.546Z,12.34
2023-02-12T15:16:47.770Z,12.33
2023-02-12T15:19:33.501Z,12.33
2023-02-12T15:22:03.394Z,12.36
2023-02-12T15:24:33.325Z,12.35
2023-02-12T15:27:03.935Z,12.32
2023-02-12T15:29:39.672Z,12.32
2023-02-12T15:32:12.757Z,12.28
2023-02-12T15:34:45.684Z,12.28
2023-02-12T15:37:23.930Z,12.31
2023-02-12T15:39:57.128Z,12.37
2023-02-12T15:42:34.246Z,12.37
2023-02-12T15:45:23.124Z,12.31
2023-02-12T15:48:21.561Z,12.26
2023-02-12T15:50:58.817Z,12.29
2023-02-12T15:53:31.199Z,12.31
2023-02-12T15:56:03.226Z,12.30
2023-02-12T15:58:35.916Z,12.27
2023-02-12T16:01:07.680Z,12.24
2023-02-12T16:03:39.694Z,12.20
2023-02-12T16:06:16.944Z,12.13
2023-02-12T16:08:51.380Z,12.12
2023-02-12T16:11:25.333Z,12.08
2023-02-12T16:13:57.646Z,12.04
2023-02-12T16:16:30.323Z,12.03
2023-02-12T16:19:10.089Z,11.98
2023-02-12T16:21:42.796Z,12.00
2023-02-12T16:24:26.233Z,11.95
2023-02-12T16:26:56.389Z,11.97
2023-02-12T16:29:26.747Z,11.96
2023-02-12T16:32:02.002Z,11.95
2023-02-12T16:34:35.440Z,11.94
2023-02-12T16:37:44.821Z,11.88
2023-02-12T16:40:36.973Z,11.84
2023-02-12T16:43:29.141Z,11.84
2023-02-12T16:46:08.025Z,11.83
2023-02-12T16:48:42.532Z,11.84
2023-02-12T16:51:25.030Z,11.77
2023-02-12T16:53:58.806Z,11.78
2023-02-12T16:56:32.784Z,11.76
2023-02-12T16:59:05.322Z,11.75
2023-02-12T17:01:37.584Z,11.76
2023-02-12T17:04:10.597Z,11.74
2023-02-12T17:06:40.490Z,11.74
2023-02-12T17:09:13.521Z,11.73
2023-02-12T17:11:43.845Z,11.73
2023-02-12T17:14:19.036Z,11.74
2023-02-12T17:16:50.518Z,11.72
2023-02-12T17:19:20.483Z,11.70
2023-02-12T17:21:52.063Z,11.68
2023-02-12T17:24:26.404Z,11.68
2023-02-12T17:26:57.160Z,11.67
2023-02-12T17:29:28.327Z,11.64
2023-02-12T17:31:58.563Z,11.61
2023-02-12T17:34:32.080Z,11.55
2023-02-12T17:37:10.184Z,11.53
2023-02-12T17:39:42.842Z,11.52
2023-02-12T17:42:12.698Z,11.53
2023-02-12T17:44:43.004Z,11.50
2023-02-12T17:47:13.090Z,11.48
2023-02-12T17:49:43.341Z,11.48
2023-02-12T17:52:13.315Z,11.50
2023-02-12T17:54:47.918Z,11.50
2023-02-12T17:57:18.726Z,11.48
2023-02-12T17:59:48.588Z,11.45
2023-02-12T18:02:18.468Z,11.44
2023-02-12T18:04:48.359Z,11.42
2023-02-12T18:07:18.401Z,11.41
2023-02-12T18:09:51.483Z,11.38
2023-02-12T18:12:21.418Z,11.37
2023-02-12T18:14:51.378Z,11.37
2023-02-12T18:17:21.171Z,11.37
2023-02-12T18:19:52.504Z,11.35
2023-02-12T18:22:22.913Z,11.33
2023-02-12T18:24:56.006Z,11.32
2023-02-12T18:27:25.917Z,11.28
2023-02-12T18:29:57.196Z,11.26
2023-02-12T18:32:27.373Z,11.23
2023-02-12T18:34:57.308Z,11.23
2023-02-12T18:37:27.172Z,11.21
2023-02-12T18:40:00.428Z,11.20
2023-02-12T18:42:32.848Z,11.18
2023-02-12T18:45:02.694Z,11.17
2023-02-12T18:47:32.516Z,11.16
2023-02-12T18:50:02.451Z,11.13
2023-02-12T18:52:32.255Z,11.13
2023-02-12T18:55:04.654Z,11.12
2023-02-12T18:57:34.511Z,11.11
2023-02-12T19:00:05.087Z,11.08
2023-02-12T19:02:34.954Z,11.08
2023-02-12T19:05:04.821Z,11.08
2023-02-12T19:07:34.598Z,11.08
2023-02-12T19:10:07.629Z,11.08
2023-02-12T19:12:37.484Z,11.06
2023-02-12T19:15:08.914Z,11.06
2023-02-12T19:17:38.757Z,11.06
2023-02-12T19:20:10.313Z,10.99
2023-02-12T19:22:40.754Z,10.94
2023-02-12T19:25:13.585Z,10.92
2023-02-12T19:27:43.533Z,10.90
2023-02-12T19:30:14.890Z,10.89
2023-02-12T19:32:44.766Z,10.85
2023-02-12T19:35:14.755Z,10.82
2023-02-12T19:37:44.916Z,10.79
2023-02-12T19:40:17.946Z,10.77
2023-02-12T19:42:47.738Z,10.78
2023-02-12T19:45:18.077Z,10.78
2023-02-12T19:47:47.936Z,10.77
2023-02-12T19:50:17.734Z,10.78
2023-02-12T19:52:47.461Z,10.77
2023-02-12T19:55:20.067Z,10.74
2023-02-12T19:57:50.160Z,10.69
2023-02-12T20:00:20.288Z,10.67
2023-02-12T20:02:50.433Z,10.64
2023-02-12T20:05:20.383Z,10.62
2023-02-12T20:07:50.235Z,10.61
2023-02-12T20:10:23.046Z,10.61
2023-02-12T20:12:52.871Z,10.59
2023-02-12T20:15:25.583Z,10.55
2023-02-12T20:17:56.235Z,10.49
2023-02-12T20:20:26.251Z,10.45
2023-02-12T20:22:56.399Z,10.43
2023-02-12T20:25:30.209Z,10.42
2023-02-12T20:28:01.632Z,10.42
2023-02-12T20:30:31.630Z,10.39
2023-02-12T20:33:01.469Z,10.37
2023-02-12T20:35:31.662Z,10.36
2023-02-12T20:38:01.462Z,10.36
2023-02-12T20:40:36.356Z,10.34
2023-02-12T20:43:06.222Z,10.29
2023-02-12T20:45:38.008Z,10.26
2023-02-12T20:48:07.936Z,10.26
2023-02-12T20:50:37.928Z,10.26
2023-02-12T20:53:08.122Z,10.25
2023-02-12T20:55:40.712Z,10.26
2023-02-12T20:58:10.574Z,10.30
2023-02-12T21:00:40.560Z,10.32
2023-02-12T21:03:10.406Z,10.35
2023-02-12T21:05:40.431Z,10.31
2023-02-12T21:08:10.247Z,10.29
2023-02-12T21:10:42.959Z,10.28
2023-02-12T21:13:13.285Z,10.29
2023-02-12T21:15:43.498Z,10.27
2023-02-12T21:18:13.434Z,10.26
2023-02-12T21:20:43.645Z,10.23
2023-02-12T21:23:13.866Z,10.21
2023-02-12T21:25:46.457Z,10.18
2023-02-12T21:28:16.427Z,10.20
2023-02-12T21:30:46.472Z,10.19
2023-02-12T21:33:16.370Z,10.18
2023-02-12T21:35:46.441Z,10.17
2023-02-12T21:38:16.578Z,10.17
2023-02-12T21:40:49.128Z,10.19
2023-02-12T21:43:18.920Z,10.20
2023-02-12T21:45:56.620Z,10.19
2023-02-12T21:48:26.489Z,10.22
2023-02-12T21:50:56.473Z,10.23
2023-02-12T21:53:26.663Z,10.23
2023-02-12T21:55:59.330Z,10.20
2023-02-12T21:58:29.255Z,10.22
2023-02-12T22:01:00.091Z,10.18
2023-02-12T22:03:30.311Z,10.19
2023-02-12T22:06:03.103Z,10.19
2023-02-12T22:08:33.406Z,10.22
2023-02-12T22:11:09.200Z,10.20
2023-02-12T22:13:39.961Z,10.22
2023-02-12T22:16:13.837Z,10.21
2023-02-12T22:18:44.773Z,10.23
2023-02-12T22:21:17.377Z,10.20
2023-02-12T22:23:48.428Z,10.19
2023-02-12T22:26:22.556Z,10.16
2023-02-12T22:28:53.942Z,10.16
2023-02-12T22:31:26.325Z,10.16
2023-02-12T22:33:59.074Z,10.16
2023-02-12T22:36:29.569Z,10.16
2023-02-12T22:39:02.436Z,10.16
2023-02-12T22:41:35.540Z,10.14
2023-02-12T22:44:06.899Z,10.13
2023-02-12T22:46:36.788Z,10.12
2023-02-12T22:49:06.655Z,10.13
2023-02-12T22:51:39.610Z,10.15
2023-02-12T22:54:10.577Z,10.16
2023-02-12T22:56:43.470Z,10.17
2023-02-12T22:59:14.937Z,10.19
2023-02-12T23:01:45.209Z,10.18
2023-02-12T23:04:18.664Z,10.17
2023-02-12T23:06:49.438Z,10.20
2023-02-12T23:09:20.689Z,10.22
2023-02-12T23:11:53.078Z,10.26
2023-02-12T23:14:23.075Z,10.29
2023-02-12T23:16:52.862Z,10.31
2023-02-12T23:19:22.827Z,10.32
2023-02-12T23:21:52.577Z,10.29
2023-02-12T23:24:22.672Z,10.28
2023-02-12T23:26:55.285Z,10.24
2023-02-12T23:29:25.192Z,10.20
2023-02-12T23:31:55.052Z,10.19
2023-02-12T23:34:25.133Z,10.18
2023-02-12T23:36:54.869Z,10.17
2023-02-12T23:39:24.621Z,10.13
2023-02-12T23:41:56.941Z,10.14
2023-02-12T23:44:26.896Z,10.13
2023-02-12T23:46:56.797Z,10.13
2023-02-12T23:49:26.843Z,10.12
2023-02-12T23:51:56.946Z,10.13
2023-02-12T23:54:26.684Z,10.13
2023-02-12T23:56:59.110Z,10.12
2023-02-12T23:59:29.851Z,10.11
